Time;durP1;ratioP1;P1;durP2;ratioP2;P2;SDS_P1;SDS_P2;PMS_P1;PMS_P2;Temp;Humidity;BMP_temperature;BMP_pressure;BME280_temperature;BME280_humidity;BME280_pressure;Samples;Min_cycle;Max_cycle;Signal;HPM_P1;HPM_P2
2022/05/02 00:00:25;;;;;;;0.80;0.80;;;4.00;99.90;;;;;;5044616;28;20372;-77
2022/05/02 00:02:51;;;;;;;0.70;0.70;;;4.00;99.90;;;;;;5034224;28;20048;-77
2022/05/02 00:05:16;;;;;;;0.70;0.70;;;3.90;99.90;;;;;;5035882;28;20104;-76
2022/05/02 00:07:42;;;;;;;0.80;0.80;;;4.00;99.90;;;;;;5048332;28;20126;-74
2022/05/02 00:10:09;;;;;;;0.80;0.80;;;3.90;99.90;;;;;;5019236;28;20230;-75
2022/05/02 00:12:35;;;;;;;0.70;0.70;;;3.90;99.90;;;;;;5050906;28;20044;-75
2022/05/02 00:15:01;;;;;;;0.60;0.60;;;3.80;99.90;;;;;;5053159;28;20540;-76
2022/05/02 00:20:12;;;;;;;0.70;0.70;;;3.70;99.90;;;;;;5049851;28;20596;-75
2022/05/02 00:22:38;;;;;;;;;;;3.70;99.90;;;;;;5051202;28;20557;-77
2022/05/02 00:25:05;;;;;;;0.60;0.60;;;3.70;99.90;;;;;;5045444;28;19920;-77
2022/05/02 00:27:31;;;;;;;0.65;0.65;;;3.60;99.90;;;;;;5027678;28;20502;-78
2022/05/02 00:29:58;;;;;;;0.70;0.70;;;3.60;99.90;;;;;;5022937;28;20084;-77
2022/05/02 00:32:23;;;;;;;0.65;0.65;;;3.50;99.90;;;;;;5049464;28;20044;-77
2022/05/02 00:34:49;;;;;;;0.50;0.50;;;3.50;99.90;;;;;;5024870;28;20042;-75
2022/05/02 00:37:15;;;;;;;0.70;0.70;;;3.60;99.90;;;;;;5031763;28;20044;-77
2022/05/02 00:39:42;;;;;;;;;;;3.50;99.90;;;;;;5022773;28;20052;-76
2022/05/02 00:42:08;;;;;;;0.68;0.68;;;3.50;99.90;;;;;;5040594;28;20321;-77
2022/05/02 00:44:34;;;;;;;0.80;0.80;;;3.40;99.90;;;;;;5043485;28;20090;-74
2022/05/02 00:46:59;;;;;;;0.80;0.80;;;3.30;99.90;;;;;;5036746;28;20095;-74
2022/05/02 00:49:25;;;;;;;0.70;0.70;;;3.30;99.90;;;;;;5045079;28;20057;-76
2022/05/02 00:51:51;;;;;;;0.70;0.70;;;3.30;99.90;;;;;;5044360;28;20045;-77
2022/05/02 00:54:16;;;;;;;0.70;0.70;;;3.30;99.90;;;;;;5035501;28;20124;-76
2022/05/02 00:56:42;;;;;;;0.85;0.85;;;3.30;99.90;;;;;;5041395;28;20049;-77
2022/05/02 00:59:11;;;;;;;0.70;0.70;;;3.20;99.90;;;;;;5043263;28;20409;-76
2022/05/02 01:01:37;;;;;;;0.65;0.65;;;3.20;99.90;;;;;;5051045;28;20045;-76
2022/05/02 01:04:03;;;;;;;0.70;0.70;;;3.20;99.90;;;;;;5032533;28;20032;-75
2022/05/02 01:09:13;;;;;;;0.70;0.70;;;3.30;99.90;;;;;;5039155;28;20175;-77
2022/05/02 01:11:38;;;;;;;0.90;0.90;;;3.10;99.90;;;;;;5023480;28;20128;-75
2022/05/02 01:14:08;;;;;;;0.60;0.60;;;3.00;99.90;;;;;;5038709;28;20439;-77
2022/05/02 01:16:34;;;;;;;0.70;0.70;;;3.00;99.90;;;;;;5043500;28;20055;-77
2022/05/02 01:18:59;;;;;;;;;;;3.00;99.90;;;;;;5004729;28;1149654;-77
2022/05/02 01:21:29;;;;;;;0.60;0.60;;;3.00;99.90;;;;;;5048275;28;19937;-77
2022/05/02 01:23:59;;;;;;;0.80;0.80;;;2.90;99.90;;;;;;5028877;28;20049;-77
2022/05/02 01:26:26;;;;;;;0.65;0.65;;;2.90;99.90;;;;;;5024787;28;20171;-78
2022/05/02 01:28:54;;;;;;;0.77;0.77;;;2.90;99.90;;;;;;5045526;28;20053;-76
2022/05/02 01:31:20;;;;;;;0.80;0.80;;;2.90;99.90;;;;;;5041236;28;20045;-75
2022/05/02 01:33:46;;;;;;;;;;;2.90;99.90;;;;;;5042529;28;20066;-76
2022/05/02 01:36:12;;;;;;;0.80;0.80;;;2.80;99.90;;;;;;5047408;28;19917;-75
2022/05/02 01:38:38;;;;;;;0.85;0.85;;;2.80;99.90;;;;;;5050297;28;20516;-77
2022/05/02 01:41:05;;;;;;;0.80;0.80;;;2.80;99.90;;;;;;5025121;28;20125;-79
2022/05/02 01:43:31;;;;;;;0.70;0.70;;;2.70;99.90;;;;;;5049627;28;20122;-76
2022/05/02 01:46:01;;;;;;;0.70;0.70;;;2.70;99.90;;;;;;5034468;28;20494;-76
2022/05/02 01:48:27;;;;;;;0.70;0.70;;;2.70;99.90;;;;;;5025704;28;20045;-78
2022/05/02 01:50:54;;;;;;;0.70;0.70;;;2.60;99.90;;;;;;5042073;28;20521;-75
2022/05/02 01:53:20;;;;;;;0.80;0.80;;;2.60;99.90;;;;;;5039483;28;20056;-77
2022/05/02 01:55:46;;;;;;;0.70;0.70;;;2.60;99.90;;;;;;5036848;28;20103;-76
2022/05/02 01:58:12;;;;;;;0.80;0.80;;;2.50;99.90;;;;;;5047940;28;20037;-76
2022/05/02 02:00:37;;;;;;;0.88;0.88;;;2.50;99.90;;;;;;5046828;28;20037;-77
2022/05/02 02:03:04;;;;;;;0.80;0.80;;;2.50;99.90;;;;;;5045574;28;20041;-78
2022/05/02 02:08:15;;;;;;;0.70;0.70;;;2.40;99.90;;;;;;5043610;28;20037;-76
2022/05/02 02:10:41;;;;;;;0.75;0.75;;;2.40;99.90;;;;;;5014620;28;20080;-78
2022/05/02 02:13:06;;;;;;;0.80;0.80;;;2.40;99.90;;;;;;5023203;28;20053;-79
2022/05/02 02:15:32;;;;;;;0.70;0.70;;;2.40;99.90;;;;;;5011749;28;20113;-75
2022/05/02 02:17:58;;;;;;;0.80;0.80;;;2.40;99.90;;;;;;5044520;28;20036;-77
2022/05/02 02:20:27;;;;;;;0.80;0.80;;;2.30;99.90;;;;;;5038156;28;20063;-79
2022/05/02 02:22:52;;;;;;;0.70;0.70;;;2.30;99.90;;;;;;5047502;28;20041;-76
2022/05/02 02:25:18;;;;;;;0.60;0.60;;;2.30;99.90;;;;;;5046249;28;20052;-76
2022/05/02 02:27:44;;;;;;;0.73;0.73;;;2.30;99.90;;;;;;5046260;28;20119;-77
2022/05/02 02:30:10;;;;;;;0.70;0.70;;;2.30;99.90;;;;;;5042139;28;20056;-77
2022/05/02 02:32:36;;;;;;;0.80;0.80;;;2.30;99.90;;;;;;5047539;28;20049;-76
2022/05/02 02:35:01;;;;;;;0.85;0.85;;;2.30;99.90;;;;;;5030257;28;20052;-78
2022/05/02 02:37:27;;;;;;;0.93;0.93;;;2.20;99.90;;;;;;5047833;28;20060;-75
2022/05/02 02:39:52;;;;;;;0.75;0.75;;;2.30;99.90;;;;;;5031213;28;20048;-77
2022/05/02 02:42:18;;;;;;;0.90;0.90;;;2.20;99.90;;;;;;5029213;28;20357;-76
2022/05/02 02:44:44;;;;;;;0.80;0.80;;;2.60;99.90;;;;;;5044700;28;20080;-77
2022/05/02 02:47:09;;;;;;;0.80;0.80;;;2.20;99.90;;;;;;5043807;28;20052;-77
2022/05/02 02:49:35;;;;;;;0.77;0.77;;;2.20;99.90;;;;;;5049370;28;20082;-76
2022/05/02 02:52:01;;;;;;;1.00;1.00;;;2.20;99.90;;;;;;5029228;28;20029;-76
2022/05/02 02:54:27;;;;;;;0.88;0.88;;;2.30;99.90;;;;;;5037879;28;20048;-77
2022/05/02 02:56:58;;;;;;;0.90;0.90;;;2.10;99.90;;;;;;5020810;28;20056;-78
2022/05/02 02:59:23;;;;;;;0.75;0.75;;;2.10;99.90;;;;;;5036616;28;20029;-76
2022/05/02 03:01:49;;;;;;;0.70;0.70;;;2.10;99.90;;;;;;5040098;28;20129;-76
2022/05/02 03:07:01;;;;;;;0.90;0.90;;;2.00;99.90;;;;;;5022651;28;20045;-76
2022/05/02 03:09:28;;;;;;;0.80;0.80;;;2.00;99.90;;;;;;5021517;28;20084;-76
2022/05/02 03:11:55;;;;;;;0.80;0.80;;;2.00;99.90;;;;;;5036243;28;20041;-78
2022/05/02 03:14:27;;;;;;;0.80;0.80;;;2.10;99.90;;;;;;5038156;28;20056;-78
2022/05/02 03:16:52;;;;;;;0.80;0.80;;;2.00;99.90;;;;;;5038193;28;20040;-77
2022/05/02 03:19:19;;;;;;;0.80;0.80;;;2.00;99.90;;;;;;5038246;28;20198;-77
2022/05/02 03:21:45;;;;;;;0.80;0.80;;;2.00;99.90;;;;;;5038424;28;20124;-77
2022/05/02 03:24:11;;;;;;;0.80;0.80;;;1.90;99.90;;;;;;5038769;28;20047;-75
2022/05/02 03:26:37;;;;;;;0.80;0.80;;;1.90;99.90;;;;;;5019724;28;20040;-77
2022/05/02 03:29:03;;;;;;;0.80;0.80;;;1.90;99.90;;;;;;5021754;28;20116;-75
2022/05/02 03:31:29;;;;;;;;;;;1.90;99.90;;;;;;5037811;28;20122;-77
2022/05/02 03:33:54;;;;;;;1.00;1.00;;;1.80;99.90;;;;;;5019547;28;20371;-75
2022/05/02 03:36:20;;;;;;;0.88;0.88;;;1.80;99.90;;;;;;5037928;28;20041;-77
2022/05/02 03:38:46;;;;;;;0.73;0.73;;;1.80;99.90;;;;;;5037457;28;20371;-78
2022/05/02 03:41:11;;;;;;;0.80;0.80;;;1.80;99.90;;;;;;5038359;28;20124;-76
2022/05/02 03:43:37;;;;;;;0.90;0.90;;;1.70;99.90;;;;;;5019127;28;20410;-77
2022/05/02 03:46:03;;;;;;;0.70;0.70;;;1.70;99.90;;;;;;5036225;28;20037;-77
2022/05/02 03:48:29;;;;;;;0.88;0.88;;;1.70;99.90;;;;;;5038321;28;20049;-76
2022/05/02 03:50:54;;;;;;;0.80;0.80;;;2.20;99.90;;;;;;5037123;28;20067;-77
2022/05/02 03:53:21;;;;;;;0.93;0.93;;;1.70;99.90;;;;;;5037030;28;20084;-76
2022/05/02 03:55:46;;;;;;;;;;;1.70;99.90;;;;;;5022009;28;20044;-77
2022/05/02 03:58:13;;;;;;;0.80;0.80;;;1.70;99.90;;;;;;5037029;28;19932;-78
2022/05/02 04:00:39;;;;;;;0.90;0.90;;;1.60;99.90;;;;;;5037064;28;20057;-77
2022/05/02 04:03:05;;;;;;;;;;;1.70;99.90;;;;;;5021331;28;20478;-77
2022/05/02 04:05:32;;;;;;;0.82;0.82;;;1.70;99.90;;;;;;5033652;28;19924;-76
2022/05/02 04:07:59;;;;;;;0.90;0.90;;;1.80;99.90;;;;;;5039053;28;20095;-78
2022/05/02 04:10:24;;;;;;;0.80;0.80;;;1.70;99.90;;;;;;5020164;28;20934;-76
2022/05/02 04:12:50;;;;;;;0.75;0.75;;;1.70;99.90;;;;;;5018892;28;20059;-79
2022/05/02 04:15:17;;;;;;;0.75;0.75;;;2.10;99.90;;;;;;5032155;28;20041;-77
2022/05/02 04:17:43;;;;;;;0.80;0.80;;;1.90;99.90;;;;;;5037689;28;20529;-80
2022/05/02 04:20:10;;;;;;;0.70;0.70;;;1.70;99.90;;;;;;5037584;28;20140;-77
2022/05/02 04:22:40;;;;;;;0.80;0.80;;;1.70;99.90;;;;;;5013735;28;20056;-77
2022/05/02 04:25:07;;;;;;;0.90;0.90;;;1.70;99.90;;;;;;5018280;28;20167;-78
2022/05/02 04:27:33;;;;;;;0.75;0.75;;;1.80;99.90;;;;;;5034068;28;20121;-76
2022/05/02 04:30:00;;;;;;;0.80;0.80;;;1.80;99.90;;;;;;5033313;28;20956;-79
2022/05/02 04:32:26;;;;;;;0.90;0.90;;;2.20;99.90;;;;;;5039352;28;20078;-76
2022/05/02 04:34:55;;;;;;;;;;;2.00;99.90;;;;;;5022878;28;20572;-76
2022/05/02 04:37:21;;;;;;;0.77;0.77;;;2.10;99.90;;;;;;5019432;28;19923;-78
2022/05/02 04:39:48;;;;;;;0.75;0.75;;;2.30;99.90;;;;;;5038874;28;20720;-78
2022/05/02 04:42:15;;;;;;;0.82;0.82;;;2.20;99.90;;;;;;5018552;28;20045;-79
2022/05/02 04:44:41;;;;;;;0.80;0.80;;;2.20;99.90;;;;;;5001641;28;20510;-78
2022/05/02 04:47:08;;;;;;;0.80;0.80;;;2.30;99.90;;;;;;5007468;28;20123;-75
2022/05/02 04:49:35;;;;;;;0.70;0.70;;;2.30;99.90;;;;;;5038105;28;20077;-78
2022/05/02 04:52:01;;;;;;;0.90;0.90;;;2.30;99.90;;;;;;5040141;28;20052;-78
2022/05/02 04:54:30;;;;;;;0.60;0.60;;;2.40;99.90;;;;;;5041231;28;20059;-77
2022/05/02 04:56:55;;;;;;;0.82;0.82;;;2.40;99.90;;;;;;5034193;28;20094;-78
2022/05/02 04:59:21;;;;;;;0.80;0.80;;;2.40;99.90;;;;;;5041944;28;20049;-75
2022/05/02 05:01:47;;;;;;;0.77;0.77;;;2.50;99.90;;;;;;5040235;28;20040;-75
2022/05/02 05:04:12;;;;;;;0.80;0.80;;;2.50;99.90;;;;;;5023610;28;20239;-76
2022/05/02 05:06:38;;;;;;;0.73;0.73;;;2.60;99.90;;;;;;5038147;28;20078;-77
2022/05/02 05:09:04;;;;;;;0.80;0.80;;;2.70;99.90;;;;;;5022938;28;20041;-77
2022/05/02 05:11:39;;;;;;;0.80;0.80;;;2.80;99.90;;;;;;5006541;28;20481;-76
2022/05/02 05:17:36;;;;;;;0.60;0.60;;;3.00;99.90;;;;;;5042695;28;20178;-76
2022/05/02 05:20:28;;;;;;;0.73;0.73;;;3.10;99.90;;;;;;5041168;28;20055;-76
2022/05/02 05:23:26;;;;;;;0.80;0.80;;;3.30;99.90;;;;;;5041745;28;20040;-76
2022/05/02 05:26:10;;;;;;;0.60;0.60;;;3.30;99.90;;;;;;5009683;28;20156;-77
2022/05/02 05:29:11;;;;;;;0.60;0.60;;;3.40;99.90;;;;;;5038772;28;20045;-76
2022/05/02 05:31:42;;;;;;;0.80;0.80;;;3.50;99.90;;;;;;5039519;28;20133;-76
2022/05/02 05:34:17;;;;;;;0.80;0.80;;;3.70;99.90;;;;;;5040563;28;20033;-75
2022/05/02 05:37:21;;;;;;;0.70;0.70;;;3.80;99.90;;;;;;5024465;28;20098;-75
2022/05/02 05:39:49;;;;;;;0.77;0.77;;;3.90;99.90;;;;;;5012302;28;20052;-77
2022/05/02 05:42:36;;;;;;;0.70;0.70;;;4.20;99.90;;;;;;5038763;28;20040;-76
2022/05/02 05:45:12;;;;;;;0.70;0.70;;;4.30;99.90;;;;;;5041416;28;20958;-76
2022/05/02 05:48:03;;;;;;;0.70;0.70;;;4.50;99.90;;;;;;5045000;28;20040;-78
2022/05/02 05:50:36;;;;;;;0.70;0.70;;;4.70;99.90;;;;;;5044300;28;20124;-79
2022/05/02 05:53:22;;;;;;;0.80;0.80;;;5.20;99.90;;;;;;5045161;28;20041;-77
2022/05/02 05:55:59;;;;;;;0.60;0.60;;;5.00;99.90;;;;;;5024901;28;20041;-77
2022/05/02 05:58:24;;;;;;;;;;;5.10;99.90;;;;;;5049905;28;20039;-77
2022/05/02 06:00:56;;;;;;;0.50;0.50;;;5.30;99.90;;;;;;5033236;28;19973;-78
2022/05/02 06:03:29;;;;;;;0.63;0.63;;;5.40;99.90;;;;;;5027448;28;20049;-77
2022/05/02 06:05:55;;;;;;;0.60;0.60;;;5.50;99.90;;;;;;5021659;28;20068;-78
2022/05/02 06:08:23;;;;;;;0.70;0.70;;;5.70;99.90;;;;;;5045434;28;20364;-77
2022/05/02 06:10:57;;;;;;;0.70;0.70;;;5.90;99.90;;;;;;5029113;28;20051;-75
2022/05/02 06:13:27;;;;;;;0.70;0.70;;;6.00;99.90;;;;;;5049801;28;20195;-77
2022/05/02 06:18:42;;;;;;;0.50;0.50;;;6.50;99.90;;;;;;5050206;28;20125;-76
2022/05/02 06:21:08;;;;;;;0.60;0.60;;;6.70;99.90;;;;;;5025145;28;20053;-77
2022/05/02 06:23:40;;;;;;;;;;;6.90;99.90;;;;;;5044833;28;20045;-77
2022/05/02 06:26:07;;;;;;;0.57;0.57;;;7.10;99.90;;;;;;5030028;28;20007;-75
2022/05/02 06:28:44;;;;;;;0.57;0.57;;;7.20;99.90;;;;;;5029837;28;20041;-75
2022/05/02 06:31:18;;;;;;;0.70;0.70;;;7.50;99.90;;;;;;5042745;28;20491;-73
2022/05/02 06:33:48;;;;;;;0.70;0.70;;;8.00;99.90;;;;;;5050259;28;20084;-76
2022/05/02 06:36:45;;;;;;;0.50;0.50;;;7.70;99.90;;;;;;5049544;28;20677;-75
2022/05/02 06:39:18;;;;;;;0.50;0.50;;;7.90;99.90;;;;;;5047898;28;20155;-74
2022/05/02 06:42:06;;;;;;;0.60;0.60;;;8.00;99.90;;;;;;5046751;28;20120;-73
2022/05/02 06:45:02;;;;;;;0.60;0.60;;;8.10;99.90;;;;;;5038915;28;20037;-75
2022/05/02 06:47:35;;;;;;;0.40;0.40;;;8.20;99.90;;;;;;5040713;28;20052;-75
2022/05/02 06:50:05;;;;;;;0.47;0.47;;;8.30;99.90;;;;;;5026829;28;20057;-74
2022/05/02 06:52:59;;;;;;;0.50;0.50;;;8.40;99.90;;;;;;5041492;28;20056;-74
2022/05/02 06:55:40;;;;;;;0.50;0.50;;;8.60;99.90;;;;;;5041134;28;20474;-74
2022/05/02 06:58:44;;;;;;;0.50;0.50;;;8.70;99.90;;;;;;5015610;28;20083;-74
2022/05/02 07:01:37;;;;;;;0.88;0.88;;;8.90;99.90;;;;;;5037300;28;20049;-74
2022/05/02 07:04:03;;;;;;;0.60;0.60;;;9.10;99.90;;;;;;5037040;28;21763;-74
2022/05/02 07:07:03;;;;;;;0.60;0.60;;;9.20;99.90;;;;;;5035546;28;20102;-76
2022/05/02 07:09:36;;;;;;;0.50;0.50;;;9.30;99.90;;;;;;5046091;28;20045;-76
2022/05/02 07:12:16;;;;;;;0.40;0.40;;;9.40;99.90;;;;;;5046656;28;20041;-74
2022/05/02 07:15:04;;;;;;;0.50;0.50;;;9.50;99.90;;;;;;5044344;28;20053;-75
2022/05/02 07:17:44;;;;;;;0.60;0.60;;;9.70;99.90;;;;;;5036667;28;20091;-73
2022/05/02 07:20:25;;;;;;;0.73;0.73;;;9.80;99.90;;;;;;5046568;28;20079;-73
2022/05/02 07:23:12;;;;;;;0.35;0.35;;;9.90;99.90;;;;;;5047260;28;20458;-74
2022/05/02 07:25:44;;;;;;;0.50;0.50;;;10.00;99.90;;;;;;5044590;28;20439;-73
2022/05/02 07:28:47;;;;;;;0.50;0.50;;;10.10;99.90;;;;;;5045612;28;20055;-74
2022/05/02 07:31:23;;;;;;;0.38;0.38;;;10.20;99.90;;;;;;5042982;28;20055;-72
2022/05/02 07:33:52;;;;;;;0.40;0.40;;;10.30;99.90;;;;;;5043758;28;20055;-73
2022/05/02 07:36:20;;;;;;;0.40;0.40;;;10.40;99.90;;;;;;5026928;28;20051;-79
2022/05/02 07:38:56;;;;;;;0.50;0.50;;;10.50;99.90;;;;;;5034898;28;20514;-77
2022/05/02 07:41:26;;;;;;;0.60;0.60;;;10.60;99.90;;;;;;5037192;28;20063;-76
2022/05/02 07:44:13;;;;;;;0.77;0.77;;;10.70;99.90;;;;;;5037541;28;20410;-77
2022/05/02 07:46:43;;;;;;;0.90;0.90;;;10.80;99.90;;;;;;5047602;28;20533;-76
2022/05/02 07:49:13;;;;;;;0.45;0.45;;;10.90;99.90;;;;;;5047580;28;20095;-77
2022/05/02 07:51:42;;;;;;;0.30;0.30;;;11.00;99.90;;;;;;5030444;28;20044;-78
2022/05/02 07:54:14;;;;;;;0.50;0.50;;;11.00;99.90;;;;;;5043235;28;20297;-79
2022/05/02 07:56:41;;;;;;;0.40;0.40;;;11.10;99.90;;;;;;5026643;28;20042;-75
2022/05/02 07:59:08;;;;;;;0.52;0.52;;;11.10;99.90;;;;;;5042295;28;20045;-77
2022/05/02 08:01:34;;;;;;;0.75;0.75;;;11.10;99.90;;;;;;5047666;28;20055;-74
2022/05/02 08:04:00;;;;;;;0.38;0.38;;;11.30;99.90;;;;;;5047233;28;20037;-75
2022/05/02 08:07:03;;;;;;;0.40;0.40;;;11.40;99.90;;;;;;5020372;28;20045;-72
2022/05/02 08:09:32;;;;;;;0.50;0.50;;;11.50;99.90;;;;;;5046630;28;20064;-77
2022/05/02 08:12:23;;;;;;;0.30;0.30;;;11.60;99.90;;;;;;5039951;28;20048;-74
2022/05/02 08:15:01;;;;;;;0.40;0.40;;;11.60;99.90;;;;;;5025962;28;20801;-74
2022/05/02 08:17:45;;;;;;;0.40;0.40;;;11.70;99.90;;;;;;5049452;28;20055;-72
2022/05/02 08:20:14;;;;;;;0.40;0.40;;;11.80;99.90;;;;;;5049701;28;20053;-73
2022/05/02 08:29:10;;;;;;;0.40;0.40;;;12.10;99.90;;;;;;5046149;28;20406;-73
2022/05/02 08:31:45;;;;;;;0.40;0.40;;;12.20;99.90;;;;;;5045212;28;20048;-73
2022/05/02 08:34:33;;;;;;;0.30;0.30;;;12.30;99.90;;;;;;5047324;28;20041;-75
2022/05/02 08:37:31;;;;;;;0.30;0.30;;;12.40;99.90;;;;;;5045626;28;20115;-74
2022/05/02 08:40:14;;;;;;;0.30;0.30;;;12.50;99.90;;;;;;5005856;28;20060;-75
2022/05/02 08:43:15;;;;;;;0.50;0.50;;;12.60;99.90;;;;;;5041267;28;20060;-72
2022/05/02 08:46:05;;;;;;;0.43;0.43;;;12.70;99.90;;;;;;5043588;28;20147;-72
2022/05/02 08:48:43;;;;;;;0.30;0.30;;;12.70;99.90;;;;;;5032898;28;20037;-72
2022/05/02 08:51:47;;;;;;;0.50;0.50;;;12.80;99.90;;;;;;5046307;28;20049;-74
2022/05/02 08:54:51;;;;;;;2.75;1.48;;;12.90;99.90;;;;;;5026102;28;20064;-76
2022/05/02 08:58:05;;;;;;;0.40;0.40;;;13.00;99.90;;;;;;5042563;28;20185;-73
2022/05/02 09:01:07;;;;;;;0.40;0.40;;;13.10;99.90;;;;;;5048340;28;20475;-77
2022/05/02 09:03:51;;;;;;;0.40;0.40;;;13.10;99.90;;;;;;5047873;28;20044;-77
2022/05/02 09:06:28;;;;;;;0.40;0.40;;;13.20;99.90;;;;;;5048114;28;20869;-77
2022/05/02 09:09:15;;;;;;;0.70;0.70;;;13.30;99.90;;;;;;5049030;28;20873;-74
2022/05/02 09:12:19;;;;;;;0.40;0.40;;;13.40;99.90;;;;;;5045026;28;20044;-76
2022/05/02 09:15:20;;;;;;;0.40;0.40;;;13.40;99.90;;;;;;5042149;28;20839;-76
2022/05/02 09:18:07;;;;;;;0.50;0.50;;;13.50;99.90;;;;;;5039805;28;20049;-75
2022/05/02 09:20:45;;;;;;;0.40;0.40;;;13.60;99.90;;;;;;5046407;28;20431;-76
2022/05/02 09:23:36;;;;;;;0.55;0.55;;;13.70;99.90;;;;;;5031787;28;20049;-75
2022/05/02 09:26:52;;;;;;;0.30;0.30;;;13.80;99.90;;;;;;5043726;28;20045;-75
2022/05/02 09:29:55;;;;;;;0.75;0.60;;;13.90;99.90;;;;;;5022181;28;20514;-76
2022/05/02 09:32:36;;;;;;;0.50;0.50;;;14.10;99.90;;;;;;5047387;28;20103;-76
2022/05/02 09:35:05;;;;;;;0.30;0.30;;;14.20;99.90;;;;;;5041257;28;20368;-78
2022/05/02 09:37:44;;;;;;;0.30;0.30;;;14.30;99.90;;;;;;5041525;28;20040;-74
2022/05/02 09:40:16;;;;;;;;;;;14.40;99.90;;;;;;5032938;28;20061;-75
2022/05/02 09:42:53;;;;;;;0.32;0.32;;;14.50;99.90;;;;;;5029196;28;19917;-75
2022/05/02 09:51:42;;;;;;;0.50;0.50;;;14.50;99.90;;;;;;5046204;28;20049;-76
2022/05/02 09:57:34;;;;;;;1.08;0.98;;;14.40;99.90;;;;;;5039208;28;20355;-75
2022/05/02 10:02:51;;;;;;;0.47;0.47;;;14.50;99.90;;;;;;5021966;28;20053;-75
2022/05/02 10:05:25;;;;;;;0.28;0.28;;;14.50;99.90;;;;;;5033720;28;20049;-75
2022/05/02 10:08:33;;;;;;;0.40;0.40;;;14.60;99.90;;;;;;5039746;28;20051;-75
2022/05/02 10:11:16;;;;;;;0.93;0.93;;;14.60;99.90;;;;;;5046231;28;20536;-75
2022/05/02 10:14:32;;;;;;;0.20;0.20;;;14.70;99.90;;;;;;5040762;28;20477;-75
2022/05/02 10:17:04;;;;;;;0.60;0.60;;;15.00;99.90;;;;;;5021436;28;20099;-75
2022/05/02 10:19:58;;;;;;;0.30;0.30;;;15.10;98.00;;;;;;5048627;28;20091;-75
2022/05/02 10:22:31;;;;;;;0.50;0.50;;;15.20;99.90;;;;;;5045382;28;20049;-75
2022/05/02 10:25:05;;;;;;;0.30;0.30;;;15.40;96.60;;;;;;5022640;28;20053;-76
2022/05/02 10:28:09;;;;;;;0.40;0.40;;;15.40;96.70;;;;;;5049353;28;20033;-75
2022/05/02 10:31:00;;;;;;;0.35;0.35;;;15.30;97.80;;;;;;5028428;28;20044;-76
2022/05/02 10:33:42;;;;;;;0.50;0.50;;;15.20;97.40;;;;;;5025018;28;20041;-75
2022/05/02 10:36:10;;;;;;;0.93;0.82;;;14.90;97.90;;;;;;5037218;28;20048;-75
2022/05/02 10:38:51;;;;;;;0.60;0.60;;;14.70;97.40;;;;;;5033809;28;20049;-76
2022/05/02 10:41:27;;;;;;;0.40;0.40;;;14.50;96.70;;;;;;5043094;28;20045;-75
2022/05/02 10:44:00;;;;;;;0.38;0.38;;;14.30;99.90;;;;;;5041803;28;20128;-75
2022/05/02 10:46:29;;;;;;;0.80;0.80;;;14.20;98.80;;;;;;5035525;28;20414;-74
2022/05/02 10:49:17;;;;;;;0.30;0.30;;;14.30;98.60;;;;;;5043019;28;20041;-74
2022/05/02 10:52:13;;;;;;;0.30;0.30;;;14.50;95.50;;;;;;5047371;28;20123;-76
2022/05/02 10:55:09;;;;;;;0.20;0.20;;;14.90;95.10;;;;;;5045350;28;20462;-76
2022/05/02 10:57:46;;;;;;;0.30;0.30;;;15.30;95.40;;;;;;5045584;28;20071;-77
2022/05/02 11:00:17;;;;;;;0.40;0.40;;;15.60;90.10;;;;;;5051773;28;20037;-75
2022/05/02 11:02:52;;;;;;;0.40;0.40;;;15.70;90.40;;;;;;5033154;28;20098;-77
2022/05/02 11:05:25;;;;;;;0.90;0.90;;;15.70;96.60;;;;;;5033038;28;20041;-75
2022/05/02 11:08:31;;;;;;;0.73;0.65;;;15.70;92.30;;;;;;5049662;28;20120;-75
2022/05/02 11:11:00;;;;;;;0.45;0.45;;;15.70;95.60;;;;;;5047769;28;20531;-76
2022/05/02 11:13:40;;;;;;;0.38;0.38;;;15.70;94.30;;;;;;5028856;28;20048;-74
2022/05/02 11:16:32;;;;;;;0.65;0.65;;;15.70;93.80;;;;;;5026338;28;20099;-75
2022/05/02 11:22:13;;;;;;;0.80;0.57;;;15.70;91.70;;;;;;5049555;28;20486;-76
2022/05/02 11:24:49;;;;;;;0.25;0.25;;;15.80;92.90;;;;;;5045126;28;20056;-76
2022/05/02 11:27:40;;;;;;;0.60;0.60;;;16.00;90.40;;;;;;5029527;28;20525;-77
2022/05/02 11:30:08;;;;;;;0.40;0.40;;;16.00;89.40;;;;;;5045117;28;20123;-75
2022/05/02 11:32:52;;;;;;;0.93;0.93;;;16.00;86.80;;;;;;5033137;28;20080;-75
2022/05/02 11:35:23;;;;;;;0.30;0.30;;;16.10;86.20;;;;;;5042441;28;20045;-75
2022/05/02 11:38:13;;;;;;;1.15;1.05;;;16.20;86.90;;;;;;5049575;28;20478;-76
2022/05/02 11:40:47;;;;;;;0.45;0.45;;;16.30;83.30;;;;;;5046792;28;20449;-76
2022/05/02 11:43:22;;;;;;;0.95;0.90;;;16.40;87.20;;;;;;5031178;28;20041;-74
2022/05/02 11:46:10;;;;;;;0.63;0.60;;;16.50;84.90;;;;;;5049627;28;20122;-75
2022/05/02 11:48:55;;;;;;;0.95;0.50;;;16.50;80.00;;;;;;5049380;28;20060;-77
2022/05/02 11:51:46;;;;;;;0.50;0.50;;;16.50;82.00;;;;;;5051092;28;20172;-77
2022/05/02 11:54:27;;;;;;;0.45;0.45;;;16.50;82.60;;;;;;5036032;28;20033;-77
2022/05/02 11:57:24;;;;;;;0.80;0.80;;;16.60;85.30;;;;;;5032175;28;20038;-75
2022/05/02 12:00:11;;;;;;;;;;;16.70;87.50;;;;;;5052093;28;20045;-75
2022/05/02 12:02:37;;;;;;;0.73;0.73;;;16.80;87.50;;;;;;5053530;28;19963;-75
2022/05/02 12:05:16;;;;;;;;;;;16.80;87.90;;;;;;5036676;28;20061;-75
2022/05/02 12:07:49;;;;;;;0.40;0.40;;;16.70;88.00;;;;;;5053243;28;20310;-75
2022/05/02 12:10:17;;;;;;;0.82;0.82;;;16.40;89.20;;;;;;5034886;28;20076;-76
2022/05/02 12:12:51;;;;;;;0.93;0.93;;;16.10;88.50;;;;;;5049484;28;20347;-76
2022/05/02 12:15:18;;;;;;;0.70;0.70;;;15.90;90.10;;;;;;5030620;28;20478;-74
2022/05/02 12:18:06;;;;;;;0.65;0.65;;;15.90;91.80;;;;;;5036439;28;20416;-75
2022/05/02 12:20:53;;;;;;;0.55;0.55;;;15.90;92.00;;;;;;5016686;28;20157;-74
2022/05/02 12:23:22;;;;;;;0.40;0.40;;;15.70;91.60;;;;;;5051962;28;20056;-73
2022/05/02 12:25:50;;;;;;;0.40;0.40;;;15.60;92.80;;;;;;5048230;28;20505;-73
2022/05/02 12:28:18;;;;;;;0.30;0.30;;;15.60;93.40;;;;;;5051143;28;20115;-74
2022/05/02 12:30:52;;;;;;;0.50;0.50;;;15.90;93.60;;;;;;5053496;28;20049;-75
2022/05/02 12:33:20;;;;;;;1.65;0.73;;;16.20;93.30;;;;;;5052755;28;20056;-75
2022/05/02 12:35:46;;;;;;;0.68;0.68;;;16.50;92.40;;;;;;5052568;28;20435;-76
2022/05/02 12:38:24;;;;;;;0.70;0.65;;;16.70;93.20;;;;;;5035174;28;20429;-73
2022/05/02 12:40:52;;;;;;;0.45;0.45;;;16.90;91.70;;;;;;5023932;28;20064;-75
2022/05/02 12:43:46;;;;;;;0.47;0.47;;;16.90;91.60;;;;;;5038170;28;20041;-73
2022/05/02 12:46:17;;;;;;;0.50;0.50;;;17.00;91.30;;;;;;5036957;28;20844;-74
2022/05/02 12:48:56;;;;;;;0.38;0.38;;;17.10;90.90;;;;;;5053881;28;20052;-76
2022/05/02 12:51:27;;;;;;;0.30;0.30;;;17.20;91.40;;;;;;5035056;28;20102;-74
2022/05/02 12:54:13;;;;;;;0.70;0.55;;;17.20;88.10;;;;;;5053229;28;20491;-74
2022/05/02 13:00:30;;;;;;;0.30;0.30;;;17.20;90.50;;;;;;5066587;28;20133;-75
2022/05/02 13:02:36;;;;;;;0.57;0.57;;;17.60;94.10;;;;;;5053169;28;20126;-76
2022/05/02 13:05:21;;;;;;;0.75;0.75;;;18.00;93.70;;;;;;5051983;28;20041;-73
2022/05/02 13:07:52;;;;;;;0.40;0.40;;;18.20;90.00;;;;;;5035055;28;20159;-74
2022/05/02 13:10:28;;;;;;;0.30;0.30;;;18.30;93.00;;;;;;5051625;28;20340;-74
2022/05/02 13:13:00;;;;;;;0.30;0.30;;;18.50;91.20;;;;;;5031070;28;20037;-75
2022/05/02 13:15:45;;;;;;;1.17;1.08;;;18.70;95.10;;;;;;5051034;28;20044;-74
2022/05/02 13:18:14;;;;;;;1.42;0.68;;;18.70;88.90;;;;;;5051650;28;20119;-76
2022/05/02 13:20:44;;;;;;;0.28;0.28;;;18.60;88.70;;;;;;5052690;28;20132;-75
2022/05/02 13:23:13;;;;;;;0.45;0.40;;;18.70;89.50;;;;;;5050813;28;20044;-73
2022/05/02 13:26:11;;;;;;;0.20;0.20;;;18.90;91.50;;;;;;5028803;28;20112;-75
2022/05/02 13:28:46;;;;;;;0.30;0.30;;;19.20;91.60;;;;;;5034560;28;20061;-77
2022/05/02 13:31:27;;;;;;;0.20;0.20;;;19.50;94.80;;;;;;5050162;28;20040;-74
2022/05/02 13:33:58;;;;;;;0.47;0.47;;;19.70;91.00;;;;;;5030736;28;20052;-76
2022/05/02 13:36:26;;;;;;;0.90;0.90;;;19.50;88.60;;;;;;5038142;28;20371;-75
2022/05/02 13:39:09;;;;;;;0.38;0.38;;;19.50;88.90;;;;;;5034047;28;20041;-76
2022/05/02 13:42:06;;;;;;;0.65;0.65;;;19.60;88.90;;;;;;5024106;28;20459;-76
2022/05/02 13:44:53;;;;;;;0.75;0.50;;;19.80;85.60;;;;;;5038562;28;20479;-75
2022/05/02 13:47:21;;;;;;;0.20;0.20;;;20.00;84.00;;;;;;5049232;28;20032;-75
2022/05/02 13:50:11;;;;;;;0.68;0.68;;;19.90;79.60;;;;;;5024156;28;20376;-76
2022/05/02 13:53:12;;;;;;;0.28;0.28;;;20.00;80.80;;;;;;5050526;28;20122;-75
2022/05/02 13:55:50;;;;;;;0.20;0.20;;;20.00;81.80;;;;;;5051229;28;20037;-75
2022/05/02 13:58:40;;;;;;;0.20;0.20;;;20.20;80.70;;;;;;5031871;28;20037;-75
2022/05/02 14:01:28;;;;;;;0.40;0.40;;;20.10;83.00;;;;;;5049813;28;20052;-74
2022/05/02 14:04:38;;;;;;;0.40;0.40;;;19.90;84.60;;;;;;5052241;28;20064;-75
2022/05/02 14:09:30;;;;;;;1.00;0.90;;;20.30;84.30;;;;;;5050146;28;20059;-75
2022/05/02 14:11:56;;;;;;;0.40;0.40;;;20.50;85.90;;;;;;5032122;28;20055;-74
2022/05/02 14:14:23;;;;;;;0.32;0.32;;;20.50;78.40;;;;;;5050028;28;20044;-74
2022/05/02 14:16:48;;;;;;;0.30;0.30;;;20.50;79.10;;;;;;5032679;28;20056;-73
2022/05/02 14:19:25;;;;;;;0.30;0.30;;;20.40;73.30;;;;;;5049313;28;20061;-75